Terminal Aerodrome Forecast
Issued by NWS Shreveport, LA

Home | Current Version | Previous Version | Text Only | Print | Product List | Glossary On
Versions: 1 2 3 4 5 6 7 8 9 10 11 12 13 14 15
000
FTUS44 KSHV 182322
TAFELD
TAF
KELD 182322Z 1900/1924 VRB04KT 5SM -SHRA BR OVC003
      TEMPO 1902/1906 5SM BR OVC003
     FM190600 04003KT 3SM BR VCSH OVC003
      TEMPO 1910/1914 3SM -SHRA BR OVC003
     FM191400 17006KT 5SM -SHRA BR OVC005
     FM191800 22007KT P6SM OVC010=

USA.gov is the U.S. government's official web portal to all federal, state and local government web resources and services.